createdAt,value
2018-11-21T00:00:05.230Z,18
2018-11-21T00:01:05.010Z,18
2018-11-21T00:02:05.074Z,18
2018-11-21T00:03:04.907Z,18
2018-11-21T00:04:05.149Z,17.98
2018-11-21T00:05:04.918Z,18
2018-11-21T00:06:04.913Z,17.98
2018-11-21T00:07:05.157Z,17.97
2018-11-21T00:08:05.075Z,17.97
2018-11-21T00:09:05.352Z,17.91
2018-11-21T00:10:05.152Z,17.94
2018-11-21T00:11:05.145Z,17.95
2018-11-21T00:12:05.347Z,17.95
2018-11-21T00:13:05.462Z,17.94
2018-11-21T00:14:04.838Z,17.93
2018-11-21T00:15:04.945Z,17.94
2018-11-21T00:16:05.319Z,17.95
2018-11-21T00:17:05.044Z,17.94
2018-11-21T00:18:05.175Z,17.95
2018-11-21T00:19:05.020Z,17.95
2018-11-21T00:20:05.199Z,17.94
2018-11-21T00:21:04.926Z,17.93
2018-11-21T00:22:05.176Z,17.93
2018-11-21T00:23:05.116Z,17.91
2018-11-21T00:24:05.481Z,17.94
2018-11-21T00:25:05.270Z,17.91
2018-11-21T00:26:05.469Z,17.91
2018-11-21T00:27:05.080Z,17.91
2018-11-21T00:28:05.127Z,17.91
2018-11-21T00:29:05.058Z,17.93
2018-11-21T00:30:05.171Z,17.89
2018-11-21T00:31:05.301Z,17.93
2018-11-21T00:32:05.176Z,17.91
2018-11-21T00:33:05.080Z,17.93
2018-11-21T00:34:05.517Z,17.91
2018-11-21T00:35:04.939Z,17.87
2018-11-21T00:36:05.144Z,17.91
2018-11-21T00:37:05.426Z,17.91
2018-11-21T00:38:05.643Z,17.91
2018-11-21T00:39:04.922Z,17.89
2018-11-21T00:40:05.065Z,17.88
2018-11-21T00:41:05.113Z,17.87
2018-11-21T00:42:04.886Z,17.87
2018-11-21T00:43:05.489Z,17.87
2018-11-21T00:44:05.147Z,17.84
2018-11-21T00:45:05.649Z,17.87
2018-11-21T00:46:05.189Z,17.84
2018-11-21T00:47:05.385Z,17.87
2018-11-21T00:48:04.993Z,17.87
2018-11-21T00:49:05.166Z,17.87
2018-11-21T00:50:05.094Z,17.85
2018-11-21T00:51:05.342Z,17.85
2018-11-21T00:52:05.102Z,17.84
2018-11-21T00:53:05.057Z,17.85
2018-11-21T00:54:05.119Z,17.85
2018-11-21T00:55:04.974Z,17.85
2018-11-21T00:56:05.039Z,17.84
2018-11-21T00:57:04.857Z,17.84
2018-11-21T00:58:05.067Z,17.85
2018-11-21T00:59:05.132Z,17.84
2018-11-21T01:00:04.931Z,17.84
2018-11-21T01:01:05.213Z,17.84
2018-11-21T01:02:05.255Z,17.87
2018-11-21T01:03:05.300Z,17.84
2018-11-21T01:04:04.927Z,17.85
2018-11-21T01:05:05.155Z,17.82
2018-11-21T01:06:05.268Z,17.84
2018-11-21T01:07:05.034Z,17.84
2018-11-21T01:08:05.341Z,17.84
2018-11-21T01:09:04.963Z,17.81
2018-11-21T01:10:05.081Z,17.82
2018-11-21T01:11:05.161Z,17.82
2018-11-21T01:12:05.168Z,17.84
2018-11-21T01:13:05.013Z,17.84
2018-11-21T01:14:04.994Z,17.81
2018-11-21T01:15:04.925Z,17.81
2018-11-21T01:16:05.107Z,17.82
2018-11-21T01:17:04.890Z,17.82
2018-11-21T01:18:05.029Z,17.81
2018-11-21T01:19:05.317Z,17.8
2018-11-21T01:20:05.407Z,17.8
2018-11-21T01:21:05.154Z,17.8
2018-11-21T01:22:05.055Z,17.77
2018-11-21T01:23:05.369Z,17.78
2018-11-21T01:24:04.939Z,17.8
2018-11-21T01:25:04.953Z,17.8
2018-11-21T01:26:05.414Z,17.8
2018-11-21T01:27:05.164Z,17.8
2018-11-21T01:28:05.133Z,17.8
2018-11-21T01:29:05.109Z,17.8
2018-11-21T01:30:05.074Z,17.78
2018-11-21T01:31:04.902Z,17.78
2018-11-21T01:32:05.108Z,17.78
2018-11-21T01:33:10.148Z,17.78
2018-11-21T01:34:04.980Z,17.76
2018-11-21T01:35:05.080Z,17.77
2018-11-21T01:36:05.137Z,17.77
2018-11-21T01:37:05.084Z,17.8
2018-11-21T01:38:05.048Z,17.76
2018-11-21T01:39:05.132Z,17.76
2018-11-21T01:40:05.373Z,17.78
2018-11-21T01:41:05.021Z,17.8
2018-11-21T01:42:05.079Z,17.78
2018-11-21T01:43:04.945Z,17.78
2018-11-21T01:44:05.111Z,17.77
2018-11-21T01:45:05.226Z,17.73
2018-11-21T01:46:05.059Z,17.74
2018-11-21T01:47:04.926Z,17.78
2018-11-21T01:48:05.000Z,17.76
2018-11-21T01:49:05.182Z,17.76
2018-11-21T01:50:04.993Z,17.74
2018-11-21T01:51:05.096Z,17.74
2018-11-21T01:52:05.390Z,17.74
2018-11-21T01:53:05.165Z,17.74
2018-11-21T01:54:05.164Z,17.74
2018-11-21T01:55:05.350Z,17.74
2018-11-21T01:56:05.097Z,17.73
2018-11-21T01:57:05.056Z,17.76
2018-11-21T01:58:05.131Z,17.76
2018-11-21T01:59:05.296Z,17.78
2018-11-21T02:00:05.390Z,17.76
2018-11-21T02:01:05.421Z,17.74
2018-11-21T02:02:05.140Z,17.76
2018-11-21T02:03:05.431Z,17.74
2018-11-21T02:04:05.279Z,17.76
2018-11-21T02:05:05.813Z,17.74
2018-11-21T02:06:05.122Z,17.71
2018-11-21T02:07:05.275Z,17.73
2018-11-21T02:08:05.139Z,17.73
2018-11-21T02:09:05.026Z,17.7
2018-11-21T02:10:04.952Z,17.74
2018-11-21T02:11:05.564Z,17.74
2018-11-21T02:12:05.799Z,17.71
2018-11-21T02:13:05.023Z,17.73
2018-11-21T02:14:05.107Z,17.7
2018-11-21T02:15:04.941Z,17.71
2018-11-21T02:16:05.036Z,17.68
2018-11-21T02:17:05.197Z,17.7
2018-11-21T02:18:05.030Z,17.68
2018-11-21T02:19:05.009Z,17.7
2018-11-21T02:20:05.120Z,17.68
2018-11-21T02:21:04.955Z,17.71
2018-11-21T02:22:05.267Z,17.7
2018-11-21T02:23:05.075Z,17.71
2018-11-21T02:24:05.165Z,17.73
2018-11-21T02:25:05.216Z,17.71
2018-11-21T02:26:04.936Z,17.73
2018-11-21T02:27:04.933Z,17.74
2018-11-21T02:28:05.197Z,17.73
2018-11-21T02:29:05.022Z,17.73
2018-11-21T02:30:04.971Z,17.71
2018-11-21T02:31:05.078Z,17.73
2018-11-21T02:32:05.172Z,17.71
2018-11-21T02:33:05.241Z,17.71
2018-11-21T02:34:05.451Z,17.71
2018-11-21T02:35:05.402Z,17.7
2018-11-21T02:36:05.031Z,17.7
2018-11-21T02:37:04.948Z,17.7
2018-11-21T02:38:05.028Z,17.7
2018-11-21T02:39:05.113Z,17.68
2018-11-21T02:40:05.309Z,17.68
2018-11-21T02:41:05.207Z,17.67
2018-11-21T02:42:05.018Z,17.64
2018-11-21T02:43:05.131Z,17.68
2018-11-21T02:44:05.091Z,17.67
2018-11-21T02:45:05.304Z,17.67
2018-11-21T02:46:04.947Z,17.67
2018-11-21T02:47:05.127Z,17.63
2018-11-21T02:48:05.149Z,17.7
2018-11-21T02:49:05.477Z,17.66
2018-11-21T02:50:04.900Z,17.68
2018-11-21T02:51:05.031Z,17.67
2018-11-21T02:52:05.511Z,17.7
2018-11-21T02:53:04.951Z,17.68
2018-11-21T02:54:05.102Z,17.71
2018-11-21T02:55:05.063Z,17.7
2018-11-21T02:56:04.984Z,17.68
2018-11-21T02:57:04.885Z,17.67
2018-11-21T02:58:05.245Z,17.67
2018-11-21T02:59:04.827Z,17.68
2018-11-21T03:00:05.232Z,17.7
2018-11-21T03:01:05.109Z,17.67
2018-11-21T03:02:04.894Z,17.67
2018-11-21T03:03:05.447Z,17.67
2018-11-21T03:04:04.962Z,17.7
2018-11-21T03:05:04.954Z,17.67
2018-11-21T03:06:04.903Z,17.67
2018-11-21T03:07:05.249Z,17.7
2018-11-21T03:08:04.978Z,17.7
2018-11-21T03:09:04.891Z,17.68
2018-11-21T03:10:05.209Z,17.68
2018-11-21T03:11:05.061Z,17.67
2018-11-21T03:12:05.096Z,17.64
2018-11-21T03:13:04.909Z,17.68
2018-11-21T03:14:04.919Z,17.64
2018-11-21T03:15:04.924Z,17.64
2018-11-21T03:16:05.754Z,17.64
2018-11-21T03:17:05.020Z,17.66
2018-11-21T03:18:05.140Z,17.66
2018-11-21T03:19:04.927Z,17.66
2018-11-21T03:20:04.962Z,17.66
2018-11-21T03:21:05.116Z,17.63
2018-11-21T03:22:04.973Z,17.64
2018-11-21T03:23:05.015Z,17.66
2018-11-21T03:24:04.848Z,17.66
2018-11-21T03:25:04.904Z,17.63
2018-11-21T03:26:04.886Z,17.64
2018-11-21T03:27:05.000Z,17.64
2018-11-21T03:28:04.868Z,17.66
2018-11-21T03:29:05.003Z,17.64
2018-11-21T03:30:05.038Z,17.63
2018-11-21T03:31:05.004Z,17.63
2018-11-21T03:32:05.113Z,17.64
2018-11-21T03:33:04.851Z,17.64
2018-11-21T03:34:04.990Z,17.64
2018-11-21T03:35:05.292Z,17.63
2018-11-21T03:36:05.289Z,17.63
2018-11-21T03:37:05.508Z,17.63
2018-11-21T03:38:05.384Z,17.6
2018-11-21T03:39:05.319Z,17.61
2018-11-21T03:40:04.941Z,17.6
2018-11-21T03:41:05.315Z,17.59
2018-11-21T03:42:04.928Z,17.61
2018-11-21T03:43:05.355Z,17.59
2018-11-21T03:44:04.921Z,17.59
2018-11-21T03:45:05.354Z,17.6
2018-11-21T03:46:04.865Z,17.61
2018-11-21T03:47:05.069Z,17.59
2018-11-21T03:48:04.941Z,17.6
2018-11-21T03:49:05.190Z,17.6
2018-11-21T03:50:05.505Z,17.6
2018-11-21T03:51:05.390Z,17.61
2018-11-21T03:52:05.318Z,17.6
2018-11-21T03:53:04.951Z,17.61
2018-11-21T03:54:05.477Z,17.59
2018-11-21T03:55:05.253Z,17.59
2018-11-21T03:56:05.021Z,17.6
2018-11-21T03:57:05.364Z,17.6
2018-11-21T03:58:04.894Z,17.64
2018-11-21T03:59:04.956Z,17.59
2018-11-21T04:00:05.149Z,17.59
2018-11-21T04:01:05.117Z,17.57
2018-11-21T04:02:05.031Z,17.6
2018-11-21T04:03:05.058Z,17.57
2018-11-21T04:04:05.073Z,17.59
2018-11-21T04:05:05.031Z,17.61
2018-11-21T04:06:05.284Z,17.6
2018-11-21T04:07:05.067Z,17.61
2018-11-21T04:08:04.832Z,17.6
2018-11-21T04:09:04.895Z,17.59
2018-11-21T04:10:05.064Z,17.59
2018-11-21T04:11:05.181Z,17.57
2018-11-21T04:12:05.247Z,17.57
2018-11-21T04:13:05.155Z,17.56
2018-11-21T04:14:05.220Z,17.57
2018-11-21T04:15:05.147Z,17.56
2018-11-21T04:16:05.118Z,17.57
2018-11-21T04:17:04.993Z,17.59
2018-11-21T04:18:05.271Z,17.59
2018-11-21T04:19:04.806Z,17.6
2018-11-21T04:20:04.885Z,17.6
2018-11-21T04:21:04.978Z,17.57
2018-11-21T04:22:04.913Z,17.56
2018-11-21T04:23:05.327Z,17.56
2018-11-21T04:24:04.977Z,17.6
2018-11-21T04:25:05.147Z,17.6
2018-11-21T04:26:05.096Z,17.56
2018-11-21T04:27:05.326Z,17.57
2018-11-21T04:28:04.906Z,17.57
2018-11-21T04:29:05.048Z,17.54
2018-11-21T04:30:05.172Z,17.59
2018-11-21T04:31:05.242Z,17.57
2018-11-21T04:32:05.290Z,17.56
2018-11-21T04:33:04.847Z,17.57
2018-11-21T04:34:05.111Z,17.54
2018-11-21T04:35:04.886Z,17.57
2018-11-21T04:36:05.184Z,17.53
2018-11-21T04:37:05.215Z,17.53
2018-11-21T04:38:05.076Z,17.56
2018-11-21T04:39:05.156Z,17.53
2018-11-21T04:40:05.132Z,17.56
2018-11-21T04:41:05.265Z,17.57
2018-11-21T04:42:04.990Z,17.56
2018-11-21T04:43:05.109Z,17.57
2018-11-21T04:44:05.193Z,17.56
2018-11-21T04:45:05.068Z,17.54
2018-11-21T04:46:05.088Z,17.56
2018-11-21T04:47:04.942Z,17.56
2018-11-21T04:48:05.064Z,17.54
2018-11-21T04:49:04.813Z,17.54
2018-11-21T04:50:04.950Z,17.56
2018-11-21T04:51:04.925Z,17.56
2018-11-21T04:52:05.068Z,17.57
2018-11-21T04:53:05.188Z,17.56
2018-11-21T04:54:04.891Z,17.6
2018-11-21T04:55:05.109Z,17.59
2018-11-21T04:56:04.838Z,17.59
2018-11-21T04:57:05.026Z,17.61
2018-11-21T04:58:04.846Z,17.64
2018-11-21T04:59:05.114Z,17.66
2018-11-21T05:00:04.855Z,17.66
2018-11-21T05:01:05.009Z,17.68
2018-11-21T05:02:04.795Z,17.71
2018-11-21T05:03:04.924Z,17.68
2018-11-21T05:04:05.044Z,17.7
2018-11-21T05:05:04.891Z,17.73
2018-11-21T05:06:05.080Z,17.73
2018-11-21T05:07:05.218Z,17.74
2018-11-21T05:08:04.994Z,17.78
2018-11-21T05:09:04.941Z,17.77
2018-11-21T05:10:05.061Z,17.81
2018-11-21T05:11:04.954Z,17.8
2018-11-21T05:12:05.145Z,17.84
2018-11-21T05:13:04.816Z,17.85
2018-11-21T05:14:05.210Z,17.87
2018-11-21T05:15:04.980Z,17.87
2018-11-21T05:16:05.288Z,17.88
2018-11-21T05:17:05.390Z,17.88
2018-11-21T05:18:04.945Z,17.93
2018-11-21T05:19:05.054Z,17.95
2018-11-21T05:20:04.779Z,17.91
2018-11-21T05:21:04.965Z,17.95
2018-11-21T05:22:05.176Z,17.98
2018-11-21T05:23:04.877Z,18
2018-11-21T05:24:05.324Z,17.98
2018-11-21T05:25:05.559Z,18.05
2018-11-21T05:26:05.203Z,18.04
2018-11-21T05:27:04.964Z,18.07
2018-11-21T05:28:05.405Z,18.05
2018-11-21T05:29:04.813Z,18.07
2018-11-21T05:30:04.943Z,18.08
2018-11-21T05:31:05.093Z,18.11
2018-11-21T05:32:05.169Z,18.11
2018-11-21T05:33:05.124Z,18.15
2018-11-21T05:34:05.066Z,18.12
2018-11-21T05:35:05.300Z,18.15
2018-11-21T05:36:05.687Z,18.18
2018-11-21T05:37:05.131Z,18.15
2018-11-21T05:38:05.026Z,18.16
2018-11-21T05:39:05.107Z,18.18
2018-11-21T05:40:04.937Z,18.21
2018-11-21T05:41:04.894Z,18.19
2018-11-21T05:42:05.358Z,18.22
2018-11-21T05:43:05.002Z,18.22
2018-11-21T05:44:04.965Z,18.23
2018-11-21T05:45:04.933Z,18.25
2018-11-21T05:46:05.044Z,18.25
2018-11-21T05:47:04.885Z,18.25
2018-11-21T05:48:05.176Z,18.26
2018-11-21T05:49:04.891Z,18.28
2018-11-21T05:50:04.814Z,18.28
2018-11-21T05:51:04.807Z,18.26
2018-11-21T05:52:04.836Z,18.28
2018-11-21T05:53:05.273Z,18.29
2018-11-21T05:54:04.927Z,18.28
2018-11-21T05:55:04.995Z,18.29
2018-11-21T05:56:05.349Z,18.3
2018-11-21T05:57:05.247Z,18.29
2018-11-21T05:58:05.276Z,18.29
2018-11-21T05:59:04.880Z,18.26
2018-11-21T06:00:04.754Z,18.32
2018-11-21T06:01:04.940Z,18.29
2018-11-21T06:02:05.152Z,18.3
2018-11-21T06:03:04.857Z,18.3
2018-11-21T06:04:05.006Z,18.3
2018-11-21T06:05:04.869Z,18.3
2018-11-21T06:06:10.185Z,18.32
2018-11-21T06:07:05.135Z,18.32
2018-11-21T06:08:04.730Z,18.3
2018-11-21T06:09:05.439Z,18.3
2018-11-21T06:10:04.879Z,18.32
2018-11-21T06:11:05.252Z,18.33
2018-11-21T06:12:04.892Z,18.32
2018-11-21T06:13:04.972Z,18.3
2018-11-21T06:14:05.249Z,18.3
2018-11-21T06:15:05.303Z,18.28
2018-11-21T06:16:04.853Z,18.32
2018-11-21T06:17:05.273Z,18.3
2018-11-21T06:18:05.069Z,18.3
2018-11-21T06:19:05.072Z,18.29
2018-11-21T06:20:04.897Z,18.3
2018-11-21T06:21:04.779Z,18.32
2018-11-21T06:22:05.141Z,18.29
2018-11-21T06:23:04.757Z,18.3
2018-11-21T06:24:04.800Z,18.3
2018-11-21T06:25:05.098Z,18.3
2018-11-21T06:26:05.700Z,18.3
2018-11-21T06:27:04.990Z,18.3
2018-11-21T06:28:04.893Z,18.3
2018-11-21T06:29:05.440Z,18.3
2018-11-21T06:30:04.883Z,18.32
2018-11-21T06:31:04.810Z,18.32
2018-11-21T06:32:04.875Z,18.29
2018-11-21T06:33:04.899Z,18.3
2018-11-21T06:34:05.032Z,18.28
2018-11-21T06:35:04.885Z,18.3
2018-11-21T06:36:05.170Z,18.28
2018-11-21T06:37:04.852Z,18.29
2018-11-21T06:38:04.944Z,18.25
2018-11-21T06:39:04.758Z,18.28
2018-11-21T06:40:04.956Z,18.29
2018-11-21T06:41:05.014Z,18.25
2018-11-21T06:42:04.743Z,18.26
2018-11-21T06:43:04.893Z,18.28
2018-11-21T06:44:04.965Z,18.28
2018-11-21T06:45:04.997Z,18.26
2018-11-21T06:46:05.034Z,18.28
2018-11-21T06:47:05.031Z,18.28
2018-11-21T06:48:05.115Z,18.25
2018-11-21T06:49:05.320Z,18.26
2018-11-21T06:50:05.153Z,18.25
2018-11-21T06:51:05.030Z,18.23
2018-11-21T06:52:04.806Z,18.26
2018-11-21T06:53:05.765Z,18.25
2018-11-21T06:54:05.236Z,18.23
2018-11-21T06:55:05.128Z,18.22
2018-11-21T06:56:04.967Z,18.25
2018-11-21T06:57:05.309Z,18.25
2018-11-21T06:58:05.186Z,18.25
2018-11-21T06:59:05.424Z,18.25
2018-11-21T07:00:05.089Z,18.26
2018-11-21T07:01:05.125Z,18.25
2018-11-21T07:02:04.903Z,18.26
2018-11-21T07:03:04.740Z,18.26
2018-11-21T07:04:04.899Z,18.25
2018-11-21T07:05:05.004Z,18.26
2018-11-21T07:06:05.287Z,18.23
2018-11-21T07:07:05.009Z,18.25
2018-11-21T07:08:04.950Z,18.25
2018-11-21T07:09:04.654Z,18.25
2018-11-21T07:10:04.876Z,18.25
2018-11-21T07:11:05.368Z,18.25
2018-11-21T07:12:04.877Z,18.22
2018-11-21T07:13:11.454Z,18.25
2018-11-21T07:14:07.594Z,18.25
2018-11-21T07:15:04.986Z,18.25
2018-11-21T07:16:05.224Z,18.25
2018-11-21T07:17:05.052Z,18.23
2018-11-21T07:18:04.758Z,18.23
2018-11-21T07:19:05.015Z,18.26
2018-11-21T07:20:05.406Z,18.22
2018-11-21T07:21:05.042Z,18.23
2018-11-21T07:22:05.093Z,18.25
2018-11-21T07:23:05.266Z,18.25
2018-11-21T07:24:04.799Z,18.26
2018-11-21T07:25:05.168Z,18.25
2018-11-21T07:26:05.079Z,18.25
2018-11-21T07:27:04.871Z,18.23
2018-11-21T07:28:04.962Z,18.23
2018-11-21T07:29:04.845Z,18.26
2018-11-21T07:30:05.403Z,18.25
2018-11-21T07:31:05.749Z,18.28
2018-11-21T07:32:05.796Z,18.26
2018-11-21T07:33:04.850Z,18.25
2018-11-21T07:34:04.903Z,18.26
2018-11-21T07:35:05.148Z,18.25
2018-11-21T07:36:05.173Z,18.26
2018-11-21T07:37:05.180Z,18.25
2018-11-21T07:38:05.043Z,18.26
2018-11-21T07:39:04.931Z,18.28
2018-11-21T07:40:04.866Z,18.25
2018-11-21T07:41:04.901Z,18.25
2018-11-21T07:42:05.199Z,18.26
2018-11-21T07:43:05.043Z,18.26
2018-11-21T07:44:04.836Z,18.25
2018-11-21T07:45:05.180Z,18.28
2018-11-21T07:46:05.021Z,18.26
2018-11-21T07:47:04.947Z,18.26
2018-11-21T07:48:05.180Z,18.29
2018-11-21T07:49:04.936Z,18.26
2018-11-21T07:50:05.079Z,18.29
2018-11-21T07:51:05.059Z,18.29
2018-11-21T07:52:05.180Z,18.3
2018-11-21T07:53:04.880Z,18.28
2018-11-21T07:54:04.775Z,18.3
2018-11-21T07:55:04.940Z,18.3
2018-11-21T07:56:04.699Z,18.33
2018-11-21T07:57:05.210Z,18.3
2018-11-21T07:58:04.871Z,18.29
2018-11-21T07:59:04.970Z,18.3
2018-11-21T08:00:05.058Z,18.26
2018-11-21T08:01:05.263Z,18.3
2018-11-21T08:02:04.851Z,18.32
2018-11-21T08:03:05.145Z,18.3
2018-11-21T08:04:04.865Z,18.29
2018-11-21T08:05:05.030Z,18.28
2018-11-21T08:06:04.947Z,18.29
2018-11-21T08:07:04.747Z,18.29
2018-11-21T08:08:04.863Z,18.3
2018-11-21T08:09:04.894Z,18.29
2018-11-21T08:10:05.101Z,18.29
2018-11-21T08:11:05.096Z,18.28
2018-11-21T08:12:04.939Z,18.3
2018-11-21T08:13:04.790Z,18.3
2018-11-21T08:14:05.052Z,18.3
2018-11-21T08:15:05.022Z,18.33
2018-11-21T08:16:04.740Z,18.32
2018-11-21T08:17:04.766Z,18.3
2018-11-21T08:18:04.894Z,18.32
2018-11-21T08:19:04.755Z,18.3
2018-11-21T08:20:05.058Z,18.3
2018-11-21T08:21:05.346Z,18.3
2018-11-21T08:22:05.077Z,18.32
2018-11-21T08:23:05.296Z,18.3
2018-11-21T08:24:06.003Z,18.32
2018-11-21T08:25:04.788Z,18.32
2018-11-21T08:26:05.031Z,18.32
2018-11-21T08:27:05.022Z,18.33
2018-11-21T08:28:05.690Z,18.3
2018-11-21T08:29:05.239Z,18.3
2018-11-21T08:30:05.181Z,18.3
2018-11-21T08:31:04.852Z,18.3
2018-11-21T08:32:05.255Z,18.32
2018-11-21T08:33:04.902Z,18.32
2018-11-21T08:34:04.873Z,18.3
2018-11-21T08:35:05.043Z,18.29
2018-11-21T08:36:05.894Z,18.3
2018-11-21T08:37:05.151Z,18.3
2018-11-21T08:38:05.000Z,18.3
2018-11-21T08:39:05.058Z,18.3
2018-11-21T08:40:05.137Z,18.29
2018-11-21T08:41:05.541Z,18.3
2018-11-21T08:42:04.937Z,18.3
2018-11-21T08:43:04.932Z,18.32
2018-11-21T08:44:04.901Z,18.32
2018-11-21T08:45:04.962Z,18.28
2018-11-21T08:46:04.921Z,18.29
2018-11-21T08:47:05.251Z,18.29
2018-11-21T08:48:04.783Z,18.29
2018-11-21T08:49:05.031Z,18.32
2018-11-21T08:50:04.912Z,18.3
2018-11-21T08:51:05.082Z,18.29
2018-11-21T08:52:04.897Z,18.28
2018-11-21T08:53:05.401Z,18.3
2018-11-21T08:54:04.688Z,18.3
2018-11-21T08:55:09.367Z,18.29
2018-11-21T08:56:05.091Z,18.28
2018-11-21T08:57:04.910Z,18.28
2018-11-21T08:58:04.913Z,18.28
2018-11-21T08:59:04.878Z,18.29
2018-11-21T09:00:04.797Z,18.28
2018-11-21T09:01:04.939Z,18.28
2018-11-21T09:02:04.745Z,18.29
2018-11-21T09:03:04.746Z,18.29
2018-11-21T09:04:04.755Z,18.29
2018-11-21T09:05:04.892Z,18.29
2018-11-21T09:06:05.321Z,18.28
2018-11-21T09:07:04.833Z,18.3
2018-11-21T09:08:05.295Z,18.3
2018-11-21T09:09:05.039Z,18.29
2018-11-21T09:10:05.026Z,18.28
2018-11-21T09:11:05.294Z,18.28
2018-11-21T09:12:09.091Z,18.29
2018-11-21T09:13:04.828Z,18.32
2018-11-21T09:14:05.143Z,18.28
2018-11-21T09:15:05.053Z,18.3
2018-11-21T09:16:05.169Z,18.28
2018-11-21T09:17:05.065Z,18.29
2018-11-21T09:18:04.878Z,18.3
2018-11-21T09:19:04.918Z,18.29
2018-11-21T09:20:05.079Z,18.29
2018-11-21T09:21:04.946Z,18.29
2018-11-21T09:22:04.880Z,18.28
2018-11-21T09:23:05.200Z,18.29
2018-11-21T09:24:04.962Z,18.29
2018-11-21T09:25:05.647Z,18.29
2018-11-21T09:26:05.017Z,18.32
2018-11-21T09:27:04.765Z,18.29
2018-11-21T09:28:04.956Z,18.29
2018-11-21T09:29:04.742Z,18.28
2018-11-21T09:30:04.852Z,18.28
2018-11-21T09:31:05.066Z,18.28
2018-11-21T09:32:04.785Z,18.3
2018-11-21T09:33:04.972Z,18.29
2018-11-21T09:34:04.815Z,18.3
2018-11-21T09:35:04.954Z,18.3
2018-11-21T09:36:05.008Z,18.29
2018-11-21T09:37:04.874Z,18.29
2018-11-21T09:38:04.779Z,18.28
2018-11-21T09:39:04.795Z,18.28
2018-11-21T09:40:05.032Z,18.28
2018-11-21T09:41:05.063Z,18.23
2018-11-21T09:42:04.958Z,18.26
2018-11-21T09:43:04.916Z,18.26
2018-11-21T09:44:04.896Z,18.26
2018-11-21T09:45:04.787Z,18.26
2018-11-21T09:46:04.897Z,18.28
2018-11-21T09:47:04.829Z,18.23
2018-11-21T09:48:04.889Z,18.25
2018-11-21T09:49:04.786Z,18.26
2018-11-21T09:50:04.786Z,18.25
2018-11-21T09:51:04.713Z,18.25
2018-11-21T09:52:04.851Z,18.25
2018-11-21T09:53:04.868Z,18.28
2018-11-21T09:54:04.779Z,18.28
2018-11-21T09:55:04.928Z,18.28
2018-11-21T09:56:04.821Z,18.28
2018-11-21T09:57:04.928Z,18.28
2018-11-21T09:58:04.975Z,18.26
2018-11-21T09:59:04.949Z,18.29
2018-11-21T10:00:04.838Z,18.26
2018-11-21T10:01:04.872Z,18.28
2018-11-21T10:02:05.006Z,18.26
2018-11-21T10:03:04.836Z,18.26
2018-11-21T10:04:05.796Z,18.29
2018-11-21T10:05:04.757Z,18.3
2018-11-21T10:06:04.833Z,18.26
2018-11-21T10:07:04.956Z,18.29
2018-11-21T10:08:05.017Z,18.26
2018-11-21T10:09:05.417Z,18.26
2018-11-21T10:10:05.151Z,18.28
2018-11-21T10:11:05.342Z,18.26
2018-11-21T10:12:05.046Z,18.26
2018-11-21T10:13:05.090Z,18.26
2018-11-21T10:14:04.997Z,18.28
2018-11-21T10:15:05.001Z,18.26
2018-11-21T10:16:04.717Z,18.28
2018-11-21T10:17:04.847Z,18.26
2018-11-21T10:18:05.181Z,18.28
2018-11-21T10:19:04.791Z,18.28
2018-11-21T10:20:04.971Z,18.3
2018-11-21T10:21:04.997Z,18.3
2018-11-21T10:22:05.012Z,18.3
2018-11-21T10:23:04.922Z,18.29
2018-11-21T10:24:04.937Z,18.29
2018-11-21T10:25:04.723Z,18.3
2018-11-21T10:26:04.788Z,18.29
2018-11-21T10:27:04.937Z,18.29
2018-11-21T10:28:05.007Z,18.29
2018-11-21T10:29:05.779Z,18.29
2018-11-21T10:30:04.769Z,18.29
2018-11-21T10:31:04.984Z,18.29
2018-11-21T10:32:04.789Z,18.28
2018-11-21T10:33:04.992Z,18.28
2018-11-21T10:34:04.784Z,18.3
2018-11-21T10:35:05.047Z,18.3
2018-11-21T10:36:04.903Z,18.3
2018-11-21T10:37:05.402Z,18.3
2018-11-21T10:38:04.685Z,18.29
2018-11-21T10:39:04.815Z,18.32
2018-11-21T10:40:04.703Z,18.29
2018-11-21T10:41:04.789Z,18.28
2018-11-21T10:42:04.941Z,18.29
2018-11-21T10:43:06.048Z,18.29
2018-11-21T10:44:04.882Z,18.3
2018-11-21T10:45:05.172Z,18.29
2018-11-21T10:46:04.912Z,18.3
2018-11-21T10:47:04.929Z,18.29
2018-11-21T10:48:04.792Z,18.3
2018-11-21T10:49:05.000Z,18.29
2018-11-21T10:50:05.217Z,18.3
2018-11-21T10:51:05.021Z,18.3
2018-11-21T10:52:05.039Z,18.29
2018-11-21T10:53:04.831Z,18.3
2018-11-21T10:54:05.009Z,18.3
2018-11-21T10:55:04.855Z,18.32
2018-11-21T10:56:04.924Z,18.32
2018-11-21T10:57:04.708Z,18.32
2018-11-21T10:58:05.278Z,18.32
2018-11-21T10:59:05.034Z,18.3
2018-11-21T11:00:04.804Z,18.32
2018-11-21T11:01:04.846Z,18.3
2018-11-21T11:02:05.091Z,18.3
2018-11-21T11:03:04.717Z,18.32
2018-11-21T11:04:04.879Z,18.29
2018-11-21T11:05:04.797Z,18.32
2018-11-21T11:06:04.769Z,18.3
2018-11-21T11:07:04.944Z,18.3
2018-11-21T11:08:04.819Z,18.3
2018-11-21T11:09:04.796Z,18.32
2018-11-21T11:10:04.895Z,18.33
2018-11-21T11:11:04.942Z,18.3
2018-11-21T11:12:04.716Z,18.32
2018-11-21T11:13:04.958Z,18.32
2018-11-21T11:14:04.985Z,18.32
2018-11-21T11:15:04.833Z,18.32
2018-11-21T11:16:04.699Z,18.28
2018-11-21T11:17:04.625Z,18.26
2018-11-21T11:18:04.658Z,18.3
2018-11-21T11:19:04.820Z,18.29
2018-11-21T11:20:08.965Z,18.3
2018-11-21T11:21:04.657Z,18.32
2018-11-21T11:22:04.974Z,18.3
2018-11-21T11:23:04.727Z,18.29
2018-11-21T11:24:04.800Z,18.3
2018-11-21T11:25:05.000Z,18.33
2018-11-21T11:26:04.727Z,18.32
2018-11-21T11:27:04.793Z,18.32
2018-11-21T11:28:04.745Z,18.3
2018-11-21T11:29:04.889Z,18.3
2018-11-21T11:30:04.736Z,18.33
2018-11-21T11:31:04.822Z,18.3
2018-11-21T11:32:05.135Z,18.29
2018-11-21T11:33:05.002Z,18.29
2018-11-21T11:34:04.656Z,18.32
2018-11-21T11:35:04.957Z,18.29
2018-11-21T11:36:04.585Z,18.3
2018-11-21T11:37:04.744Z,18.3
2018-11-21T11:38:05.003Z,18.29
2018-11-21T11:39:04.802Z,18.32
2018-11-21T11:40:04.965Z,18.29
2018-11-21T11:41:04.708Z,18.3
2018-11-21T11:42:04.836Z,18.29
2018-11-21T11:43:04.695Z,18.29
2018-11-21T11:44:04.775Z,18.32
2018-11-21T11:45:04.995Z,18.29
2018-11-21T11:46:04.812Z,18.29
2018-11-21T11:47:04.880Z,18.29
2018-11-21T11:48:04.917Z,18.32
2018-11-21T11:49:05.035Z,18.3
2018-11-21T11:50:04.723Z,18.3
2018-11-21T11:51:04.836Z,18.29
2018-11-21T11:52:04.699Z,18.29
2018-11-21T11:53:04.736Z,18.29
2018-11-21T11:54:05.247Z,18.29
2018-11-21T11:55:04.828Z,18.33
2018-11-21T11:56:04.937Z,18.29
2018-11-21T11:57:04.984Z,18.3
2018-11-21T11:58:04.845Z,18.28
2018-11-21T11:59:04.724Z,18.28
2018-11-21T12:00:04.761Z,18.3
2018-11-21T12:01:04.893Z,18.29
2018-11-21T12:02:04.753Z,18.3
2018-11-21T12:03:05.335Z,18.28
2018-11-21T12:04:04.822Z,18.28
2018-11-21T12:05:04.892Z,18.28
2018-11-21T12:06:05.025Z,18.29
2018-11-21T12:07:04.716Z,18.28
2018-11-21T12:08:04.742Z,18.28
2018-11-21T12:09:05.273Z,18.28
2018-11-21T12:10:05.089Z,18.28
2018-11-21T12:11:04.779Z,18.29
2018-11-21T12:12:05.270Z,18.29
2018-11-21T12:13:04.794Z,18.29
2018-11-21T12:14:04.898Z,18.28
2018-11-21T12:15:04.672Z,18.28
2018-11-21T12:16:05.057Z,18.28
2018-11-21T12:17:05.099Z,18.26
2018-11-21T12:18:05.035Z,18.29
2018-11-21T12:19:04.723Z,18.28
2018-11-21T12:20:04.783Z,18.28
2018-11-21T12:21:04.758Z,18.28
2018-11-21T12:22:04.798Z,18.28
2018-11-21T12:23:05.049Z,18.28
2018-11-21T12:24:05.371Z,18.3
2018-11-21T12:25:04.769Z,18.28
2018-11-21T12:26:10.470Z,18.29
2018-11-21T12:27:05.351Z,18.29
2018-11-21T12:28:05.056Z,18.28
2018-11-21T12:29:04.792Z,18.29
2018-11-21T12:30:05.308Z,18.29
2018-11-21T12:31:04.946Z,18.29
2018-11-21T12:32:04.897Z,18.29
2018-11-21T12:33:04.780Z,18.29
2018-11-21T12:34:04.775Z,18.28
2018-11-21T12:35:04.669Z,18.3
2018-11-21T12:36:04.673Z,18.29
2018-11-21T12:37:04.589Z,18.29
2018-11-21T12:38:04.702Z,18.3
2018-11-21T12:39:04.860Z,18.29
2018-11-21T12:40:04.958Z,18.3
2018-11-21T12:41:05.087Z,18.3
2018-11-21T12:42:04.997Z,18.29
2018-11-21T12:43:05.214Z,18.29
2018-11-21T12:44:04.719Z,18.28
2018-11-21T12:45:04.840Z,18.28
2018-11-21T12:46:04.804Z,18.28
2018-11-21T12:47:04.984Z,18.26
2018-11-21T12:48:05.130Z,18.28
2018-11-21T12:49:04.764Z,18.29
2018-11-21T12:50:04.779Z,18.29
2018-11-21T12:51:04.640Z,18.3
2018-11-21T12:52:04.784Z,18.29
2018-11-21T12:53:04.798Z,18.3
2018-11-21T12:54:04.755Z,18.29
2018-11-21T12:55:04.834Z,18.29
2018-11-21T12:56:04.707Z,18.3
2018-11-21T12:57:04.674Z,18.29
2018-11-21T12:58:04.845Z,18.3